Time;durP1;ratioP1;P1;durP2;ratioP2;P2;SDS_P1;SDS_P2;PMS_P1;PMS_P2;Temp;Humidity;BMP_temperature;BMP_pressure;BME280_temperature;BME280_humidity;BME280_pressure;Samples;Min_cycle;Max_cycle;Signal;HPM_P1;HPM_P2
2024/04/10 00:00:25;;;;;;;1.67;1.13;;;7.60;99.90;;;;;;5293742;27;20238;-76
2024/04/10 00:02:50;;;;;;;1.77;1.63;;;7.60;99.90;;;;;;5308510;26;20506;-77
2024/04/10 00:05:19;;;;;;;1.20;0.90;;;7.60;99.90;;;;;;5305509;27;20667;-77
2024/04/10 00:07:45;;;;;;;1.65;1.50;;;7.60;99.90;;;;;;5288774;27;20717;-77
2024/04/10 00:10:14;;;;;;;1.92;1.10;;;7.60;99.90;;;;;;5296967;27;20724;-77
2024/04/10 00:12:42;;;;;;;1.67;1.30;;;7.50;99.90;;;;;;5289107;27;20344;-77
2024/04/10 00:15:11;;;;;;;1.75;1.23;;;7.50;99.90;;;;;;5306149;26;20683;-76
2024/04/10 00:17:37;;;;;;;1.63;1.30;;;7.50;99.90;;;;;;5299916;26;20607;-77
2024/04/10 00:20:06;;;;;;;2.70;1.13;;;7.40;99.90;;;;;;5310322;27;20246;-78
2024/04/10 00:22:32;;;;;;;1.30;0.98;;;7.40;99.90;;;;;;5278571;27;20348;-78
2024/04/10 00:25:01;;;;;;;1.20;1.10;;;7.40;99.90;;;;;;5305357;26;20241;-78
2024/04/10 00:27:27;;;;;;;1.20;1.10;;;7.40;99.90;;;;;;5311417;26;20250;-77
2024/04/10 00:29:58;;;;;;;1.67;1.17;;;7.30;99.90;;;;;;5298942;27;20266;-77
2024/04/10 00:32:25;;;;;;;1.52;1.25;;;7.30;99.90;;;;;;5283901;27;20234;-77
2024/04/10 00:34:54;;;;;;;1.25;1.15;;;7.30;99.90;;;;;;5311285;26;20264;-78
2024/04/10 00:37:19;;;;;;;1.52;1.17;;;7.30;99.90;;;;;;5280260;26;20250;-77
2024/04/10 00:39:48;;;;;;;2.55;1.35;;;7.20;99.90;;;;;;5277810;27;20243;-77
2024/04/10 00:42:14;;;;;;;4.40;2.13;;;7.10;99.90;;;;;;5295561;27;20238;-78
2024/04/10 00:44:53;;;;;;;1.30;1.03;;;7.10;99.90;;;;;;5297860;26;20336;-77
2024/04/10 00:47:23;;;;;;;1.35;1.08;;;7.10;99.90;;;;;;5294087;26;20241;-77
2024/04/10 00:49:51;;;;;;;2.60;1.30;;;7.10;99.90;;;;;;5301824;26;20855;-78
2024/04/10 00:52:18;;;;;;;1.55;1.10;;;7.10;99.90;;;;;;5294710;26;20298;-77
2024/04/10 00:54:48;;;;;;;1.77;1.35;;;7.00;99.90;;;;;;5287838;27;20284;-78
2024/04/10 00:57:14;;;;;;;1.25;1.15;;;7.00;99.90;;;;;;5308272;26;20829;-77
2024/04/10 00:59:42;;;;;;;1.60;1.10;;;7.00;99.90;;;;;;5277951;27;20663;-77
2024/04/10 01:02:08;;;;;;;1.75;1.25;;;7.00;99.90;;;;;;5292900;27;20251;-77
2024/04/10 01:04:39;;;;;;;1.23;1.13;;;7.00;99.90;;;;;;5291924;27;20282;-78
2024/04/10 01:07:09;;;;;;;2.47;1.23;;;7.00;99.90;;;;;;5293013;26;20790;-77
2024/04/10 01:09:37;;;;;;;1.60;1.20;;;6.90;99.90;;;;;;5278087;27;20238;-78
2024/04/10 01:12:04;;;;;;;1.90;1.33;;;6.90;99.90;;;;;;5280320;27;20277;-77
2024/04/10 01:14:32;;;;;;;2.55;1.40;;;6.90;99.90;;;;;;5292095;26;20235;-78
2024/04/10 01:16:58;;;;;;;1.92;1.42;;;6.90;99.90;;;;;;5304011;26;20324;-78
2024/04/10 01:19:26;;;;;;;2.03;1.77;;;6.80;99.90;;;;;;5292273;27;20242;-78
2024/04/10 01:21:54;;;;;;;1.40;1.30;;;6.80;99.90;;;;;;5303492;26;20350;-77
2024/04/10 01:24:25;;;;;;;1.15;1.05;;;6.70;99.90;;;;;;5293846;27;20238;-76
2024/04/10 01:26:51;;;;;;;1.65;1.15;;;6.70;99.90;;;;;;5292262;26;20589;-77
2024/04/10 01:29:20;;;;;;;1.13;1.03;;;6.60;99.90;;;;;;5282418;27;20243;-75
2024/04/10 01:31:45;;;;;;;1.77;1.40;;;6.60;99.90;;;;;;5298111;27;20297;-76
2024/04/10 01:34:14;;;;;;;1.20;1.10;;;6.60;99.90;;;;;;5309016;26;20252;-75
2024/04/10 01:36:39;;;;;;;1.40;1.30;;;6.50;99.90;;;;;;5287385;26;20724;-77
2024/04/10 01:39:08;;;;;;;2.20;1.43;;;6.50;99.90;;;;;;5284090;27;20285;-76
2024/04/10 01:41:36;;;;;;;1.73;1.23;;;6.40;99.90;;;;;;5279458;27;20570;-76
2024/04/10 01:44:04;;;;;;;1.52;1.10;;;6.50;99.90;;;;;;5292504;27;20676;-77
2024/04/10 01:46:30;;;;;;;1.15;1.05;;;6.40;99.90;;;;;;5297755;26;20335;-77
2024/04/10 01:48:59;;;;;;;2.30;1.23;;;6.40;99.90;;;;;;5285101;26;20231;-77
2024/04/10 01:51:24;;;;;;;2.00;1.40;;;6.40;99.90;;;;;;5304478;27;20539;-76
2024/04/10 01:53:53;;;;;;;1.43;1.30;;;6.40;99.90;;;;;;5279278;27;20344;-77
2024/04/10 01:56:19;;;;;;;1.23;1.00;;;6.30;99.90;;;;;;5293249;27;20242;-77
2024/04/10 01:58:50;;;;;;;2.03;1.43;;;6.40;99.90;;;;;;5287562;27;20246;-77
2024/04/10 02:01:16;;;;;;;1.75;1.42;;;6.40;99.90;;;;;;5297999;27;20241;-76
2024/04/10 02:03:44;;;;;;;1.10;1.00;;;6.30;99.90;;;;;;5297684;27;20829;-76
2024/04/10 02:06:10;;;;;;;3.47;1.65;;;6.30;99.90;;;;;;5297397;27;20321;-76
2024/04/10 02:08:38;;;;;;;1.93;1.10;;;6.30;99.90;;;;;;5309304;26;20430;-76
2024/04/10 02:13:52;;;;;;;1.20;1.10;;;6.30;99.90;;;;;;5288798;26;20230;-76
2024/04/10 02:16:18;;;;;;;1.75;1.23;;;6.20;99.90;;;;;;5284276;27;20612;-76
2024/04/10 02:18:47;;;;;;;2.30;1.30;;;6.30;99.90;;;;;;5287970;26;20243;-76
2024/04/10 02:21:12;;;;;;;2.10;1.25;;;6.30;99.90;;;;;;5281200;27;20478;-77
2024/04/10 02:23:41;;;;;;;1.27;1.03;;;6.30;99.90;;;;;;5286980;27;20344;-77
2024/04/10 02:26:10;;;;;;;1.33;1.20;;;6.30;99.90;;;;;;5285396;26;20247;-76
2024/04/10 02:28:38;;;;;;;1.35;1.10;;;6.30;99.90;;;;;;5288780;26;20296;-77
2024/04/10 02:31:07;;;;;;;1.60;1.23;;;6.30;99.90;;;;;;5280761;27;20276;-77
2024/04/10 02:33:37;;;;;;;1.48;1.23;;;6.20;99.90;;;;;;5304014;26;20736;-76
2024/04/10 02:36:03;;;;;;;2.25;1.50;;;6.20;99.90;;;;;;5292542;27;20238;-77
2024/04/10 02:38:32;;;;;;;1.20;1.10;;;6.20;99.90;;;;;;5284725;26;20253;-77
2024/04/10 02:40:58;;;;;;;1.67;1.35;;;6.10;99.90;;;;;;5285927;26;20241;-76
2024/04/10 02:43:27;;;;;;;3.78;1.50;;;6.10;99.90;;;;;;5279495;27;20249;-76
2024/04/10 02:45:53;;;;;;;1.48;1.20;;;6.20;99.90;;;;;;5302429;27;20988;-76
2024/04/10 02:48:25;;;;;;;1.75;1.45;;;6.10;99.90;;;;;;5281995;26;21039;-77
2024/04/10 02:50:51;;;;;;;0.93;0.82;;;6.10;99.90;;;;;;5277425;27;20747;-76
2024/04/10 02:53:19;;;;;;;1.35;1.23;;;6.10;99.90;;;;;;5261815;27;20249;-75
2024/04/10 02:55:46;;;;;;;1.40;1.20;;;6.10;99.90;;;;;;5266516;27;20271;-76
2024/04/10 02:58:15;;;;;;;2.05;1.20;;;6.10;99.90;;;;;;5249802;27;20651;-76
2024/04/10 03:00:43;;;;;;;2.67;1.40;;;6.00;99.90;;;;;;5253800;27;20235;-76
2024/04/10 03:03:12;;;;;;;1.30;1.10;;;5.90;99.90;;;;;;5251479;27;20243;-76
2024/04/10 03:05:42;;;;;;;2.47;1.20;;;5.90;99.90;;;;;;5257985;27;20756;-76
2024/04/10 03:08:11;;;;;;;2.75;1.35;;;5.80;99.90;;;;;;5247124;27;20385;-76
2024/04/10 03:10:37;;;;;;;2.47;1.25;;;5.80;99.90;;;;;;5275340;27;20237;-77
2024/04/10 03:13:07;;;;;;;3.38;1.08;;;5.80;99.90;;;;;;5263857;27;20301;-75
2024/04/10 03:15:33;;;;;;;4.15;1.20;;;5.80;99.90;;;;;;5258131;27;20240;-77
2024/04/10 03:18:02;;;;;;;2.33;1.23;;;5.70;99.90;;;;;;5268511;27;20249;-76
2024/04/10 03:20:27;;;;;;;1.52;1.30;;;5.70;99.90;;;;;;5269198;27;20584;-76
2024/04/10 03:22:59;;;;;;;3.60;1.30;;;5.70;99.90;;;;;;5257859;27;20285;-76
2024/04/10 03:25:25;;;;;;;1.00;0.90;;;5.60;99.90;;;;;;5261507;27;20231;-76
2024/04/10 03:27:53;;;;;;;1.53;1.23;;;5.50;99.90;;;;;;5254573;27;20246;-76
2024/04/10 03:30:19;;;;;;;1.58;1.27;;;5.40;99.90;;;;;;5248072;27;20602;-76
2024/04/10 03:32:48;;;;;;;2.23;1.30;;;5.40;99.90;;;;;;5265898;27;20250;-76
2024/04/10 03:35:13;;;;;;;1.83;1.50;;;5.30;99.90;;;;;;5262356;27;20295;-76
2024/04/10 03:37:42;;;;;;;1.80;1.23;;;5.20;99.90;;;;;;5246470;27;20244;-77
2024/04/10 03:40:11;;;;;;;1.20;1.10;;;5.10;99.90;;;;;;5259689;27;20989;-79
2024/04/10 03:42:39;;;;;;;1.55;1.13;;;5.00;99.90;;;;;;5255809;27;20271;-77
2024/04/10 03:45:08;;;;;;;1.10;1.00;;;5.10;99.90;;;;;;5266623;27;20319;-77
2024/04/10 03:47:38;;;;;;;1.10;1.00;;;5.00;99.90;;;;;;5277836;27;20725;-78
2024/04/10 03:50:07;;;;;;;1.63;1.50;;;5.00;99.90;;;;;;5283705;27;20367;-76
2024/04/10 03:52:35;;;;;;;1.30;1.10;;;5.00;99.90;;;;;;5311889;26;20267;-76
2024/04/10 03:55:01;;;;;;;2.28;1.35;;;5.00;99.90;;;;;;5300789;26;20346;-75
2024/04/10 03:57:32;;;;;;;2.67;1.40;;;5.00;99.90;;;;;;5308120;26;20242;-75
2024/04/10 03:59:58;;;;;;;1.90;1.60;;;5.00;99.90;;;;;;5305439;26;20712;-75
2024/04/10 04:02:27;;;;;;;1.50;1.17;;;4.90;99.90;;;;;;5286184;27;20239;-75
2024/04/10 04:04:53;;;;;;;1.83;1.40;;;4.90;99.90;;;;;;5304005;27;20271;-75
2024/04/10 04:07:21;;;;;;;1.20;1.10;;;4.90;99.90;;;;;;5309421;26;20311;-75
2024/04/10 04:09:47;;;;;;;1.45;1.20;;;4.90;99.90;;;;;;5282543;27;20233;-75
2024/04/10 04:12:15;;;;;;;4.80;1.50;;;4.90;99.90;;;;;;5297531;27;20621;-75
2024/04/10 04:14:44;;;;;;;4.40;1.23;;;5.00;99.90;;;;;;5293605;27;20472;-76
2024/04/10 04:17:12;;;;;;;1.38;1.27;;;5.00;99.90;;;;;;5285847;27;20368;-75
2024/04/10 04:19:38;;;;;;;3.15;1.30;;;5.00;99.90;;;;;;5310735;27;20269;-76
2024/04/10 04:22:06;;;;;;;3.23;1.50;;;5.00;99.90;;;;;;5300644;26;20246;-76
2024/04/10 04:24:32;;;;;;;2.63;0.93;;;5.00;99.90;;;;;;5300599;26;20237;-75
2024/04/10 04:27:00;;;;;;;2.20;1.87;;;5.00;99.90;;;;;;5311581;26;20644;-75
2024/04/10 04:29:27;;;;;;;1.20;1.10;;;5.00;99.90;;;;;;5307999;27;20275;-75
2024/04/10 04:31:58;;;;;;;1.48;1.38;;;4.90;99.90;;;;;;5302188;26;20681;-75
2024/04/10 04:34:23;;;;;;;1.50;1.40;;;4.90;99.90;;;;;;5300027;26;20348;-75
2024/04/10 04:36:52;;;;;;;1.43;1.20;;;4.90;99.90;;;;;;5291831;27;20739;-75
2024/04/10 04:39:18;;;;;;;1.83;1.48;;;4.90;99.90;;;;;;5308600;27;20244;-76
2024/04/10 04:41:46;;;;;;;1.33;1.10;;;4.90;99.90;;;;;;5300666;26;20287;-76
2024/04/10 04:44:12;;;;;;;1.70;1.17;;;4.90;99.90;;;;;;5312927;26;20295;-75
2024/04/10 04:46:41;;;;;;;1.65;1.52;;;4.90;99.90;;;;;;5296568;26;20637;-76
2024/04/10 04:49:09;;;;;;;2.25;1.27;;;4.90;99.90;;;;;;5284505;27;20339;-75
2024/04/10 04:51:38;;;;;;;1.60;1.50;;;4.90;99.90;;;;;;5305228;26;20294;-75
2024/04/10 04:54:04;;;;;;;7.30;1.50;;;4.90;99.90;;;;;;5285097;27;20245;-75
2024/04/10 04:56:32;;;;;;;2.00;1.23;;;4.90;99.90;;;;;;5296599;27;20243;-75
2024/04/10 04:58:58;;;;;;;1.50;1.17;;;4.90;99.90;;;;;;5293347;27;21131;-75
2024/04/10 05:01:27;;;;;;;2.13;1.77;;;5.00;99.90;;;;;;5297503;26;20249;-76
2024/04/10 05:06:42;;;;;;;1.17;1.08;;;5.10;99.90;;;;;;5291489;26;20292;-75
2024/04/10 05:09:12;;;;;;;1.35;1.23;;;5.10;99.90;;;;;;5310250;26;20287;-75
2024/04/10 05:11:37;;;;;;;1.60;1.50;;;5.20;99.90;;;;;;5300460;27;20241;-75
2024/04/10 05:14:06;;;;;;;1.50;1.17;;;5.30;99.90;;;;;;5289608;27;20400;-75
2024/04/10 05:16:32;;;;;;;1.70;1.10;;;5.40;99.90;;;;;;5310561;26;20241;-75
2024/04/10 05:19:04;;;;;;;1.60;1.10;;;5.40;99.90;;;;;;5300350;26;20281;-76
2024/04/10 05:21:30;;;;;;;4.80;1.40;;;5.50;99.90;;;;;;5300732;26;20240;-75
2024/04/10 05:24:01;;;;;;;2.50;1.37;;;5.60;99.90;;;;;;5290512;26;20351;-75
2024/04/10 05:26:27;;;;;;;2.40;1.52;;;5.70;99.90;;;;;;5313020;26;20240;-81
2024/04/10 05:28:55;;;;;;;3.78;1.30;;;5.80;99.90;;;;;;5314395;27;20249;-79
2024/04/10 05:31:21;;;;;;;1.38;1.27;;;5.80;99.90;;;;;;5306567;26;20236;-78
2024/04/10 05:33:50;;;;;;;1.87;1.33;;;5.90;99.90;;;;;;5297724;26;20306;-79
2024/04/10 05:36:15;;;;;;;2.00;1.75;;;5.90;99.90;;;;;;5313901;27;20300;-76
2024/04/10 05:38:45;;;;;;;6.63;1.50;;;6.00;99.90;;;;;;5290554;26;20340;-76
2024/04/10 05:41:13;;;;;;;1.75;1.45;;;6.10;99.90;;;;;;5311551;26;20245;-81
2024/04/10 05:43:42;;;;;;;2.80;1.55;;;6.20;99.90;;;;;;5301190;26;20241;-78
2024/04/10 05:46:08;;;;;;;2.65;1.40;;;6.20;99.90;;;;;;5300976;26;20745;-78
2024/04/10 05:48:37;;;;;;;2.10;1.33;;;6.30;99.90;;;;;;5299427;26;20580;-77
2024/04/10 05:51:03;;;;;;;1.90;1.40;;;6.40;99.90;;;;;;5301595;26;20280;-77
2024/04/10 05:53:33;;;;;;;1.60;1.25;;;6.50;99.90;;;;;;5316597;27;20287;-78
2024/04/10 05:56:01;;;;;;;1.17;0.93;;;6.60;99.90;;;;;;5315760;26;20249;-78
2024/04/10 05:58:32;;;;;;;1.80;1.20;;;6.70;99.90;;;;;;5299238;26;20351;-79
2024/04/10 06:01:04;;;;;;;4.13;1.50;;;6.70;99.90;;;;;;5303036;27;20353;-80
2024/04/10 06:03:32;;;;;;;2.35;1.73;;;6.70;99.90;;;;;;5299490;26;20327;-78
2024/04/10 06:06:05;;;;;;;1.50;1.30;;;6.80;99.90;;;;;;5296332;26;20285;-80
2024/04/10 06:08:34;;;;;;;1.38;1.23;;;6.90;99.90;;;;;;5288655;27;20234;-78
2024/04/10 06:10:59;;;;;;;2.13;1.20;;;6.90;99.90;;;;;;5301596;26;20538;-77
2024/04/10 06:13:28;;;;;;;1.73;1.43;;;7.00;99.90;;;;;;5298241;26;20241;-78
2024/04/10 06:16:00;;;;;;;4.07;1.60;;;7.00;99.90;;;;;;5290816;27;20238;-79
2024/04/10 06:18:28;;;;;;;2.90;1.60;;;7.10;99.90;;;;;;5294197;26;20284;-78
2024/04/10 06:20:58;;;;;;;1.73;1.35;;;7.10;99.90;;;;;;5310727;26;20238;-80
2024/04/10 06:23:27;;;;;;;1.33;1.17;;;7.10;99.90;;;;;;5312770;26;20241;-78
2024/04/10 06:25:52;;;;;;;2.83;1.55;;;7.10;99.90;;;;;;5298344;26;20238;-80
2024/04/10 06:28:21;;;;;;;2.17;1.50;;;7.20;99.90;;;;;;5314592;26;20651;-79
2024/04/10 06:30:47;;;;;;;1.75;1.38;;;7.30;99.90;;;;;;5308628;26;20331;-80
2024/04/10 06:33:18;;;;;;;1.70;1.33;;;7.40;99.90;;;;;;5311312;26;20284;-78
2024/04/10 06:35:44;;;;;;;1.70;1.25;;;7.40;99.90;;;;;;5313563;26;20364;-78
2024/04/10 06:38:12;;;;;;;2.70;1.50;;;7.40;99.90;;;;;;5302341;26;20242;-78
2024/04/10 06:40:38;;;;;;;2.63;1.63;;;7.50;99.90;;;;;;5304356;27;20251;-78
2024/04/10 06:43:06;;;;;;;3.43;1.63;;;7.60;99.90;;;;;;5305519;26;20281;-78
2024/04/10 06:45:32;;;;;;;2.85;1.70;;;7.60;99.90;;;;;;5300082;26;20276;-78
2024/04/10 06:48:00;;;;;;;2.60;1.60;;;7.70;99.90;;;;;;5319909;26;20245;-78
2024/04/10 06:50:29;;;;;;;2.22;1.20;;;7.80;99.90;;;;;;5312706;27;20281;-78
2024/04/10 06:52:57;;;;;;;1.52;1.42;;;7.80;99.90;;;;;;5312335;26;20230;-79
2024/04/10 06:55:23;;;;;;;3.30;1.27;;;7.90;99.90;;;;;;5309460;26;20580;-76
2024/04/10 06:57:52;;;;;;;2.60;1.30;;;8.00;99.90;;;;;;5311538;26;20296;-78
2024/04/10 07:00:18;;;;;;;2.53;1.25;;;8.20;99.90;;;;;;5300901;26;20233;-77
2024/04/10 07:02:46;;;;;;;2.00;1.43;;;8.30;99.90;;;;;;5302877;26;20284;-77
2024/04/10 07:05:12;;;;;;;3.97;1.50;;;8.40;99.90;;;;;;5304892;26;20481;-78
2024/04/10 07:07:43;;;;;;;2.80;1.73;;;8.50;99.90;;;;;;5301815;27;20645;-78
2024/04/10 07:10:12;;;;;;;3.65;1.63;;;8.50;99.90;;;;;;5299938;26;20518;-78
2024/04/10 07:12:38;;;;;;;1.65;1.25;;;8.60;99.90;;;;;;5301389;26;20242;-79
2024/04/10 07:15:07;;;;;;;4.90;1.90;;;8.60;99.90;;;;;;5292067;27;20243;-79
2024/04/10 07:17:33;;;;;;;3.47;1.55;;;8.70;99.90;;;;;;5310577;26;20249;-78
2024/04/10 07:20:01;;;;;;;8.10;2.10;;;8.70;99.90;;;;;;5309052;26;20242;-77
2024/04/10 07:22:27;;;;;;;5.85;1.85;;;8.70;99.90;;;;;;5294367;26;20230;-77
2024/04/10 07:24:58;;;;;;;3.90;1.80;;;8.80;99.90;;;;;;5292269;26;20736;-76
2024/04/10 07:27:24;;;;;;;6.53;1.52;;;8.80;99.90;;;;;;5309732;26;20292;-78
2024/04/10 07:29:54;;;;;;;5.23;1.40;;;8.90;99.90;;;;;;5293808;26;20242;-76
2024/04/10 07:32:20;;;;;;;5.65;1.63;;;9.00;99.90;;;;;;5298818;26;20625;-76
2024/04/10 07:34:48;;;;;;;3.90;1.33;;;9.10;99.90;;;;;;5303579;26;20251;-79
2024/04/10 07:37:14;;;;;;;3.95;1.48;;;9.10;99.90;;;;;;5297678;27;20254;-78
2024/04/10 07:39:42;;;;;;;5.00;1.27;;;9.10;99.90;;;;;;5299658;26;20242;-78
2024/04/10 07:42:14;;;;;;;1.92;1.00;;;9.10;99.90;;;;;;5300236;27;20282;-79
2024/04/10 07:44:42;;;;;;;7.53;1.65;;;9.10;99.90;;;;;;5303138;27;20731;-78
2024/04/10 07:47:08;;;;;;;7.10;1.83;;;9.20;99.90;;;;;;5309283;26;20272;-79
2024/04/10 07:49:36;;;;;;;3.43;1.60;;;9.30;99.90;;;;;;5308935;26;20376;-78
2024/04/10 07:52:02;;;;;;;2.35;1.27;;;9.40;99.90;;;;;;5300361;27;20276;-78
2024/04/10 07:54:32;;;;;;;4.00;1.53;;;9.50;99.90;;;;;;5299137;27;20226;-77
2024/04/10 07:56:58;;;;;;;3.28;1.30;;;9.60;99.90;;;;;;5303282;26;20524;-78
2024/04/10 07:59:29;;;;;;;4.10;1.20;;;9.70;99.90;;;;;;5298770;26;20303;-77
2024/04/10 08:01:55;;;;;;;4.35;1.73;;;9.90;99.90;;;;;;5294607;27;20634;-78
2024/04/10 08:04:23;;;;;;;2.97;1.40;;;10.20;99.90;;;;;;5308194;26;20347;-78
2024/04/10 08:06:49;;;;;;;7.38;2.28;;;10.40;99.90;;;;;;5294555;27;21015;-79
2024/04/10 08:09:17;;;;;;;5.17;1.67;;;10.50;99.90;;;;;;5297953;26;20238;-77
2024/04/10 08:11:44;;;;;;;2.90;1.42;;;10.50;99.90;;;;;;5301702;26;20234;-77
2024/04/10 08:14:12;;;;;;;4.85;1.40;;;10.60;99.90;;;;;;5310019;26;20668;-77
2024/04/10 08:16:41;;;;;;;3.20;1.48;;;10.90;99.90;;;;;;5291892;26;20238;-79
2024/04/10 08:19:09;;;;;;;3.90;1.50;;;11.20;99.90;;;;;;5309946;26;20242;-79
2024/04/10 08:21:36;;;;;;;3.60;1.37;;;11.40;99.90;;;;;;5305666;27;20515;-77
2024/04/10 08:24:04;;;;;;;2.10;1.17;;;11.70;99.90;;;;;;5297317;26;20477;-81
2024/04/10 08:26:32;;;;;;;2.00;1.23;;;12.00;99.90;;;;;;5302122;26;20461;-80
2024/04/10 08:29:02;;;;;;;3.87;1.30;;;12.50;99.90;;;;;;5308618;26;20472;-81
2024/04/10 08:31:28;;;;;;;2.17;1.30;;;12.90;99.90;;;;;;5301251;27;20563;-80
2024/04/10 08:34:00;;;;;;;5.40;1.70;;;13.40;99.40;;;;;;5308417;26;20486;-80
2024/04/10 08:36:27;;;;;;;5.50;2.23;;;13.70;98.30;;;;;;5301170;26;20910;-80
2024/04/10 08:38:57;;;;;;;4.60;1.70;;;14.10;98.50;;;;;;5305075;26;20488;-81
2024/04/10 08:41:26;;;;;;;3.63;1.63;;;14.50;98.30;;;;;;5306034;26;20517;-78
2024/04/10 08:43:56;;;;;;;3.37;1.43;;;14.60;97.00;;;;;;5306670;27;20530;-79
2024/04/10 08:46:26;;;;;;;3.30;1.10;;;14.40;97.30;;;;;;5312737;26;20525;-79
2024/04/10 08:48:57;;;;;;;4.90;1.20;;;14.10;97.40;;;;;;5298346;26;20490;-80
2024/04/10 08:51:26;;;;;;;3.87;1.40;;;13.80;97.40;;;;;;5277165;27;20466;-79
2024/04/10 08:53:56;;;;;;;5.13;1.53;;;14.20;97.10;;;;;;5271839;27;21053;-80
2024/04/10 08:56:22;;;;;;;2.10;1.43;;;14.80;96.70;;;;;;5271341;27;20530;-77
2024/04/10 08:58:51;;;;;;;2.40;1.53;;;15.70;95.70;;;;;;5269563;27;20533;-80
2024/04/10 09:01:26;;;;;;;2.57;1.33;;;16.40;94.90;;;;;;5270466;27;20485;-77
2024/04/10 09:03:55;;;;;;;2.53;1.20;;;16.90;93.40;;;;;;5279151;27;20530;-80
2024/04/10 09:06:21;;;;;;;3.93;1.40;;;17.40;93.00;;;;;;5281375;27;20474;-78
2024/04/10 09:09:01;;;;;;;1.87;1.43;;;17.90;93.60;;;;;;5279139;27;20482;-79
2024/04/10 09:11:27;;;;;;;2.03;1.40;;;18.00;90.30;;;;;;5268415;27;20469;-79
2024/04/10 09:14:03;;;;;;;2.30;1.67;;;17.50;90.60;;;;;;5280872;27;20470;-80
2024/04/10 09:16:29;;;;;;;8.70;3.40;;;17.60;90.50;;;;;;5276370;27;20477;-79
2024/04/10 09:18:57;;;;;;;2.90;1.53;;;18.40;90.50;;;;;;5273820;27;20475;-79
2024/04/10 09:21:23;;;;;;;2.30;1.20;;;19.20;86.70;;;;;;5272452;27;21066;-77
2024/04/10 09:24:03;;;;;;;1.43;1.20;;;19.90;85.80;;;;;;5277208;27;20482;-77
2024/04/10 09:26:29;;;;;;;1.47;1.23;;;19.70;84.90;;;;;;5270931;27;20477;-77
2024/04/10 09:29:05;;;;;;;2.10;1.63;;;18.60;85.60;;;;;;5269096;27;20604;-77
2024/04/10 09:31:31;;;;;;;1.10;1.00;;;17.60;85.30;;;;;;5272519;27;20261;-77
2024/04/10 09:34:00;;;;;;;2.57;1.23;;;16.30;85.70;;;;;;5261030;27;20527;-76
2024/04/10 09:36:30;;;;;;;2.80;1.30;;;15.40;86.00;;;;;;5271146;27;20550;-77
2024/04/10 09:39:03;;;;;;;3.63;1.20;;;14.80;90.50;;;;;;5267311;27;20478;-77
2024/04/10 09:41:35;;;;;;;3.07;1.37;;;15.50;90.00;;;;;;5263227;27;20588;-77
2024/04/10 09:44:06;;;;;;;2.43;1.37;;;16.90;88.30;;;;;;5276983;27;20571;-77
2024/04/10 09:46:34;;;;;;;4.20;1.83;;;18.40;87.80;;;;;;5268714;27;20620;-77
2024/04/10 09:49:10;;;;;;;1.40;1.23;;;19.70;83.90;;;;;;5268028;27;20513;-77
2024/04/10 09:51:38;;;;;;;1.70;1.20;;;20.50;79.40;;;;;;5294687;27;20477;-77
2024/04/10 09:54:08;;;;;;;2.47;1.43;;;21.30;77.80;;;;;;5305827;27;20527;-77
2024/04/10 09:56:38;;;;;;;2.93;1.73;;;21.60;79.60;;;;;;5302741;26;20469;-77
2024/04/10 09:59:10;;;;;;;2.50;1.23;;;22.30;80.00;;;;;;5293610;26;20471;-77
2024/04/10 10:01:37;;;;;;;2.00;1.10;;;23.00;78.60;;;;;;5308720;26;20488;-77
2024/04/10 10:04:06;;;;;;;2.50;1.30;;;23.20;75.00;;;;;;5289516;26;20482;-77
2024/04/10 10:06:31;;;;;;;1.60;1.07;;;22.50;73.90;;;;;;5310288;26;20836;-77
2024/04/10 10:09:00;;;;;;;2.83;1.70;;;21.50;73.60;;;;;;5302396;27;20596;-77
2024/04/10 10:11:27;;;;;;;1.00;0.90;;;21.00;75.30;;;;;;5296854;26;20521;-77
2024/04/10 10:14:03;;;;;;;1.57;1.10;;;20.40;76.00;;;;;;5303483;27;20563;-77
2024/04/10 10:16:31;;;;;;;1.87;1.20;;;19.60;75.80;;;;;;5303112;27;20525;-77
2024/04/10 10:19:01;;;;;;;2.03;1.30;;;18.60;77.80;;;;;;5312277;27;21088;-77
2024/04/10 10:21:27;;;;;;;1.10;1.00;;;17.90;76.90;;;;;;5304389;26;20890;-77
2024/04/10 10:24:00;;;;;;;4.17;2.00;;;17.90;75.00;;;;;;5310570;27;20481;-77
2024/04/10 10:26:27;;;;;;;2.90;1.10;;;18.40;76.00;;;;;;5295947;26;20972;-77
2024/04/10 10:29:06;;;;;;;5.60;1.97;;;19.60;77.60;;;;;;5302500;26;20487;-77
2024/04/10 10:32:01;;;;;;;1.20;0.90;;;20.90;77.00;;;;;;5305132;26;20476;-77
2024/04/10 10:34:29;;;;;;;1.60;1.20;;;21.90;75.70;;;;;;5295707;27;20473;-78
2024/04/10 10:37:02;;;;;;;3.00;1.30;;;22.40;76.70;;;;;;5311923;26;20485;-77
2024/04/10 10:39:30;;;;;;;2.00;1.07;;;22.40;75.50;;;;;;5288027;27;20898;-77
2024/04/10 10:41:59;;;;;;;3.47;1.47;;;21.40;76.50;;;;;;5303621;27;20590;-78
2024/04/10 10:44:30;;;;;;;1.50;1.23;;;20.30;78.30;;;;;;5296227;26;20497;-78
2024/04/10 10:46:57;;;;;;;2.23;1.27;;;19.50;79.30;;;;;;5307245;26;20531;-78
2024/04/10 10:49:26;;;;;;;2.70;1.40;;;18.70;77.90;;;;;;5294829;26;20476;-77
2024/04/10 10:51:52;;;;;;;3.10;1.20;;;18.50;78.50;;;;;;5262608;27;20480;-78
2024/04/10 10:54:21;;;;;;;1.70;1.03;;;19.20;79.30;;;;;;5267836;27;20871;-77
2024/04/10 10:56:47;;;;;;;1.83;1.17;;;20.00;75.00;;;;;;5276201;27;20581;-78
2024/04/10 10:59:15;;;;;;;1.13;0.90;;;20.40;74.80;;;;;;5267921;27;20479;-78
2024/04/10 11:01:43;;;;;;;1.33;0.97;;;20.60;75.00;;;;;;5268754;27;20576;-77
2024/04/10 11:04:13;;;;;;;1.40;1.00;;;21.30;73.30;;;;;;5275891;27;20522;-78
2024/04/10 11:06:38;;;;;;;3.37;1.20;;;21.70;74.10;;;;;;5273588;27;20522;-78
2024/04/10 11:09:09;;;;;;;3.70;1.33;;;22.20;73.70;;;;;;5263873;27;20902;-78
2024/04/10 11:13:00;;;;;;;4.23;1.50;;;22.60;75.30;;;;;;5547473;25;20539;-77
2024/04/10 11:15:25;;;;;;;1.73;1.00;;;22.80;76.20;;;;;;5535011;25;20467;-76
2024/04/10 11:18:03;;;;;;;2.77;1.20;;;23.00;74.00;;;;;;5522609;25;20533;-76
2024/04/10 11:20:29;;;;;;;3.33;1.63;;;22.60;72.60;;;;;;5498628;26;20232;-76
2024/04/10 11:23:00;;;;;;;4.40;1.57;;;21.90;72.50;;;;;;5505620;25;20525;-77
2024/04/10 11:25:26;;;;;;;2.60;1.67;;;21.70;71.80;;;;;;5498974;26;20228;-78
2024/04/10 11:27:58;;;;;;;2.97;1.23;;;21.70;73.20;;;;;;5506685;25;20927;-76
2024/04/10 11:30:24;;;;;;;2.60;1.63;;;22.30;71.80;;;;;;5505205;25;20632;-77
2024/04/10 11:32:52;;;;;;;1.50;1.10;;;22.60;70.70;;;;;;5505122;25;20607;-78
2024/04/10 11:35:18;;;;;;;2.17;1.20;;;22.50;68.80;;;;;;5514552;25;20619;-80
2024/04/10 11:37:47;;;;;;;4.67;1.63;;;21.80;66.80;;;;;;5506398;25;20552;-77
2024/04/10 11:40:13;;;;;;;4.37;1.40;;;21.00;67.10;;;;;;5507640;25;20810;-79
2024/04/10 11:42:41;;;;;;;2.17;1.13;;;21.20;70.50;;;;;;5510388;25;20545;-79
2024/04/10 11:45:10;;;;;;;2.70;1.30;;;22.10;72.20;;;;;;5505521;25;20725;-78
2024/04/10 11:47:39;;;;;;;10.20;1.80;;;22.70;66.30;;;;;;5508729;25;20477;-79
2024/04/10 11:50:07;;;;;;;3.20;1.20;;;23.10;67.20;;;;;;5505172;25;20618;-76
2024/04/10 11:52:35;;;;;;;1.87;1.60;;;23.70;68.30;;;;;;5505785;25;20826;-79
2024/04/10 11:55:03;;;;;;;3.40;1.50;;;23.90;69.90;;;;;;5504961;25;20545;-78
2024/04/10 11:57:31;;;;;;;3.50;1.80;;;23.50;67.80;;;;;;5504534;25;20892;-79
2024/04/10 11:59:57;;;;;;;2.23;1.07;;;22.80;67.10;;;;;;5498112;26;20873;-79
2024/04/10 12:02:29;;;;;;;1.23;1.00;;;22.80;69.30;;;;;;5505054;25;20480;-77
2024/04/10 12:04:55;;;;;;;2.93;1.20;;;23.20;69.00;;;;;;5504691;25;20473;-76
2024/04/10 12:07:23;;;;;;;2.40;1.20;;;23.00;68.20;;;;;;5505430;25;20477;-77
2024/04/10 12:09:49;;;;;;;2.33;1.30;;;23.40;67.90;;;;;;5506063;25;20767;-79
2024/04/10 12:12:17;;;;;;;1.83;1.03;;;23.70;65.30;;;;;;5507830;25;20473;-80
2024/04/10 12:14:44;;;;;;;2.10;1.57;;;23.50;67.00;;;;;;5508930;26;20629;-78
2024/04/10 12:17:12;;;;;;;1.60;1.40;;;23.80;68.10;;;;;;5506687;26;20524;-78
2024/04/10 12:19:41;;;;;;;1.10;0.90;;;24.40;66.60;;;;;;5505327;25;20566;-77
2024/04/10 12:22:10;;;;;;;2.90;1.20;;;24.90;65.90;;;;;;5503717;25;20560;-79
2024/04/10 12:24:36;;;;;;;2.03;1.00;;;25.20;66.60;;;;;;5494971;26;20990;-78
2024/04/10 12:27:05;;;;;;;2.30;1.20;;;25.40;66.10;;;;;;5491722;26;20469;-81
2024/04/10 12:29:31;;;;;;;2.10;1.00;;;25.20;65.10;;;;;;5491542;26;20866;-80
2024/04/10 12:31:59;;;;;;;2.03;1.30;;;25.50;69.00;;;;;;5492590;26;20470;-78
2024/04/10 12:34:25;;;;;;;4.30;1.47;;;25.90;66.90;;;;;;5481624;26;20481;-77
2024/04/10 12:39:41;;;;;;;2.83;1.23;;;25.90;63.50;;;;;;5488341;26;20571;-78
2024/04/10 12:42:07;;;;;;;2.23;1.50;;;25.30;64.70;;;;;;5488146;26;20465;-78
2024/04/10 12:44:37;;;;;;;2.20;1.10;;;24.30;66.40;;;;;;5489317;26;20478;-78
2024/04/10 12:47:03;;;;;;;2.40;1.33;;;22.50;67.50;;;;;;5490001;26;20236;-79
2024/04/10 12:49:32;;;;;;;2.20;1.27;;;21.30;69.50;;;;;;5489351;26;20514;-77
2024/04/10 12:52:00;;;;;;;2.10;1.40;;;20.20;72.20;;;;;;5490326;26;20486;-76
2024/04/10 12:54:29;;;;;;;5.40;1.63;;;19.40;72.70;;;;;;5480573;26;20489;-80
2024/04/10 12:56:54;;;;;;;1.87;1.30;;;18.80;73.70;;;;;;5491130;26;20493;-78
2024/04/10 12:59:23;;;;;;;3.13;1.60;;;18.30;74.10;;;;;;5491916;26;20470;-80
2024/04/10 13:01:49;;;;;;;1.57;1.10;;;17.90;72.70;;;;;;5494109;26;20228;-80
2024/04/10 13:04:17;;;;;;;1.53;1.23;;;17.60;75.10;;;;;;5493121;26;20869;-80
2024/04/10 13:06:45;;;;;;;2.63;1.20;;;17.40;74.40;;;;;;5491549;26;20275;-78